Time;durP1;ratioP1;P1;durP2;ratioP2;P2;SDS_P1;SDS_P2;PMS_P1;PMS_P2;Temp;Humidity;BMP_temperature;BMP_pressure;BME280_temperature;BME280_humidity;BME280_pressure;Samples;Min_cycle;Max_cycle;Signal;HPM_P1;HPM_P2
2022/12/05 00:02:21;;;;;;;19.80;9.98;;;3.90;99.90;;;;;;5066823;28;20111;-42
2022/12/05 00:04:46;;;;;;;20.73;9.10;;;4.00;99.90;;;;;;5060863;28;20045;-42
2022/12/05 00:07:12;;;;;;;21.92;10.82;;;3.90;99.90;;;;;;5062161;28;20108;-43
2022/12/05 00:09:38;;;;;;;22.63;10.05;;;4.00;99.90;;;;;;5066886;28;20445;-40
2022/12/05 00:12:04;;;;;;;22.30;10.40;;;4.00;99.90;;;;;;5067388;28;20127;-44
2022/12/05 00:14:29;;;;;;;19.73;9.85;;;3.90;99.90;;;;;;5065523;28;20037;-46
2022/12/05 00:16:55;;;;;;;19.33;8.43;;;4.00;99.90;;;;;;5060396;28;20035;-43
2022/12/05 00:19:21;;;;;;;19.70;9.88;;;4.00;99.90;;;;;;5065502;28;20440;-42
2022/12/05 00:21:47;;;;;;;21.30;9.43;;;4.00;99.90;;;;;;5068187;28;20512;-42
2022/12/05 00:24:15;;;;;;;20.30;8.90;;;4.00;99.90;;;;;;5060743;28;20119;-42
2022/12/05 00:26:41;;;;;;;18.52;8.73;;;4.00;99.90;;;;;;5066650;28;20047;-45
2022/12/05 00:29:07;;;;;;;20.35;8.68;;;4.00;99.90;;;;;;5067254;28;20467;-47
2022/12/05 00:31:34;;;;;;;19.95;9.90;;;4.00;99.90;;;;;;5066271;28;20064;-44
2022/12/05 00:34:01;;;;;;;18.65;8.88;;;4.00;99.90;;;;;;5070579;28;20490;-44
2022/12/05 00:36:29;;;;;;;19.65;8.77;;;4.00;99.90;;;;;;5059650;28;20037;-45
2022/12/05 00:38:57;;;;;;;17.55;8.50;;;4.00;99.90;;;;;;5064917;28;20821;-47
2022/12/05 00:41:25;;;;;;;23.00;9.20;;;4.00;99.90;;;;;;5057971;28;20552;-44
2022/12/05 00:43:52;;;;;;;17.58;8.10;;;4.00;99.90;;;;;;5062434;28;20041;-42
2022/12/05 00:46:21;;;;;;;17.92;8.50;;;4.00;99.90;;;;;;5062738;28;20044;-43
2022/12/05 00:48:47;;;;;;;19.58;8.20;;;4.00;99.90;;;;;;5053668;28;20052;-42
2022/12/05 00:51:19;;;;;;;19.77;9.00;;;4.10;99.90;;;;;;5067074;28;20041;-44
2022/12/05 00:53:46;;;;;;;17.53;8.30;;;4.00;99.90;;;;;;5060083;28;20490;-43
2022/12/05 00:56:22;;;;;;;20.40;8.77;;;4.00;99.90;;;;;;5066501;28;20299;-54
2022/12/05 00:58:49;;;;;;;17.60;7.88;;;4.00;99.90;;;;;;5042100;28;20138;-41
2022/12/05 01:01:19;;;;;;;18.50;8.80;;;4.10;99.90;;;;;;5062369;28;20052;-43
2022/12/05 01:03:45;;;;;;;20.92;9.00;;;4.00;99.90;;;;;;5066929;28;20106;-42
2022/12/05 01:06:13;;;;;;;20.30;8.15;;;4.00;99.90;;;;;;5067557;28;20379;-44
2022/12/05 01:08:39;;;;;;;14.38;7.25;;;4.10;99.90;;;;;;5060498;28;20044;-40
2022/12/05 01:11:06;;;;;;;18.05;8.23;;;4.10;99.90;;;;;;5060790;28;20512;-41
2022/12/05 01:13:32;;;;;;;19.92;9.00;;;4.10;99.90;;;;;;5063807;28;20041;-44
2022/12/05 01:15:58;;;;;;;16.25;7.72;;;4.10;99.90;;;;;;5061804;28;20068;-44
2022/12/05 01:18:25;;;;;;;16.40;8.25;;;4.10;99.90;;;;;;5061700;28;20040;-43
2022/12/05 01:20:51;;;;;;;15.63;7.65;;;4.10;99.90;;;;;;5065986;28;20041;-45
2022/12/05 01:23:18;;;;;;;16.10;7.40;;;4.10;99.90;;;;;;5065011;28;20406;-43
2022/12/05 01:25:46;;;;;;;15.95;7.32;;;4.10;99.90;;;;;;5056100;28;20127;-42
2022/12/05 01:28:13;;;;;;;15.13;7.80;;;4.20;99.90;;;;;;5059865;28;20039;-45
2022/12/05 01:30:40;;;;;;;19.85;8.45;;;4.20;99.90;;;;;;5063141;28;20056;-41
2022/12/05 01:33:06;;;;;;;18.60;7.65;;;4.20;99.90;;;;;;5058439;28;20128;-45
2022/12/05 01:35:34;;;;;;;16.70;7.85;;;4.20;99.90;;;;;;5060425;28;20115;-44
2022/12/05 01:38:00;;;;;;;15.02;7.55;;;4.20;99.90;;;;;;5063464;28;20036;-43
2022/12/05 01:40:25;;;;;;;17.25;8.07;;;4.20;99.90;;;;;;5062227;28;20521;-44
2022/12/05 01:42:51;;;;;;;17.73;8.30;;;4.20;99.90;;;;;;5055326;28;20033;-42
2022/12/05 01:45:25;;;;;;;16.90;8.02;;;4.20;99.90;;;;;;5053013;28;20093;-62
2022/12/05 01:47:51;;;;;;;19.58;8.52;;;4.30;99.90;;;;;;5066289;28;20540;-43
2022/12/05 01:50:16;;;;;;;16.65;7.95;;;4.30;99.90;;;;;;5063631;28;20052;-43
2022/12/05 01:52:42;;;;;;;17.92;8.27;;;4.20;99.90;;;;;;5058269;28;20041;-44
2022/12/05 01:55:13;;;;;;;18.40;8.07;;;4.30;99.90;;;;;;5065283;28;20044;-42
2022/12/05 01:57:40;;;;;;;16.92;7.88;;;4.30;99.90;;;;;;5040295;28;20093;-42
2022/12/05 02:00:20;;;;;;;15.93;7.90;;;4.30;99.90;;;;;;5061300;28;20037;-42
2022/12/05 02:02:53;;;;;;;17.25;8.13;;;4.30;99.90;;;;;;5055777;28;20033;-43
2022/12/05 02:05:30;;;;;;;21.40;8.80;;;4.30;99.90;;;;;;5066374;28;20052;-44
2022/12/05 02:07:58;;;;;;;19.55;8.75;;;4.30;99.90;;;;;;5059145;28;20047;-43
2022/12/05 02:10:25;;;;;;;18.98;8.98;;;4.30;99.90;;;;;;5057907;28;20032;-42
2022/12/05 02:12:51;;;;;;;19.58;8.98;;;4.30;99.90;;;;;;5063200;28;20048;-44
2022/12/05 02:15:41;;;;;;;19.75;9.70;;;4.30;99.90;;;;;;5064474;28;20087;-42
2022/12/05 02:18:28;;;;;;;19.73;8.52;;;4.30;99.90;;;;;;5057970;28;20068;-43
2022/12/05 02:21:12;;;;;;;21.83;9.25;;;4.40;99.90;;;;;;5065142;28;20063;-41
2022/12/05 02:24:04;;;;;;;19.35;9.32;;;4.30;99.90;;;;;;5058826;28;20043;-45
2022/12/05 02:26:59;;;;;;;21.70;10.05;;;4.30;99.90;;;;;;5065642;28;20059;-42
2022/12/05 02:30:03;;;;;;;20.30;8.52;;;4.40;99.90;;;;;;5058981;28;20041;-42
2022/12/05 02:32:37;;;;;;;22.40;9.77;;;4.30;99.90;;;;;;5070985;28;20045;-43
2022/12/05 02:35:14;;;;;;;23.77;10.43;;;4.40;99.90;;;;;;5050437;28;20124;-42
2022/12/05 02:38:08;;;;;;;23.83;10.50;;;4.40;99.90;;;;;;5042200;28;20040;-46
2022/12/05 02:41:02;;;;;;;20.80;9.85;;;4.40;99.90;;;;;;5056088;28;20048;-45
2022/12/05 02:43:36;;;;;;;19.38;9.23;;;4.30;99.90;;;;;;5070156;28;20056;-44
2022/12/05 02:46:11;;;;;;;25.73;11.10;;;4.30;99.90;;;;;;5055097;28;20486;-43
2022/12/05 02:48:38;;;;;;;25.65;11.00;;;4.40;99.90;;;;;;5063670;28;20032;-42
2022/12/05 02:51:06;;;;;;;22.77;10.43;;;4.30;99.90;;;;;;5059897;28;20074;-43
2022/12/05 02:53:33;;;;;;;21.23;9.93;;;4.30;99.90;;;;;;5069235;28;20770;-45
2022/12/05 02:56:01;;;;;;;22.17;9.73;;;4.40;99.90;;;;;;5065738;28;20138;-43
2022/12/05 02:58:37;;;;;;;24.48;9.85;;;4.40;99.90;;;;;;5060082;28;20064;-42
2022/12/05 03:01:03;;;;;;;25.88;10.77;;;4.40;99.90;;;;;;5058691;28;20032;-44
2022/12/05 03:03:29;;;;;;;23.33;10.68;;;4.40;99.90;;;;;;5068047;28;20106;-43
2022/12/05 03:06:03;;;;;;;23.23;9.90;;;4.40;99.90;;;;;;5063803;28;20041;-43
2022/12/05 03:08:39;;;;;;;23.20;9.55;;;4.40;99.90;;;;;;5057107;28;20076;-41
2022/12/05 03:11:05;;;;;;;25.85;11.05;;;4.40;99.90;;;;;;5061087;28;20445;-43
2022/12/05 03:13:40;;;;;;;26.67;11.80;;;4.40;99.90;;;;;;5058490;28;20112;-43
2022/12/05 03:16:14;;;;;;;27.95;10.98;;;4.40;99.90;;;;;;5066375;28;20422;-43
2022/12/05 03:18:46;;;;;;;25.75;10.50;;;4.40;99.90;;;;;;5062520;28;20050;-44
2022/12/05 03:21:36;;;;;;;28.75;12.27;;;4.40;99.90;;;;;;5063079;28;20036;-44
2022/12/05 03:24:06;;;;;;;22.73;11.15;;;4.40;99.90;;;;;;5054722;28;20041;-55
2022/12/05 03:26:40;;;;;;;24.17;10.90;;;4.40;99.90;;;;;;5061748;28;20041;-45
2022/12/05 03:29:28;;;;;;;28.42;12.05;;;4.40;99.90;;;;;;5059651;28;20053;-42
2022/12/05 03:31:57;;;;;;;28.73;12.25;;;4.40;99.90;;;;;;5061524;28;20443;-44
2022/12/05 03:34:38;;;;;;;26.50;11.35;;;4.40;99.90;;;;;;5055527;28;20064;-46
2022/12/05 03:37:12;;;;;;;28.83;12.43;;;4.40;99.90;;;;;;5067334;28;20110;-42
2022/12/05 03:39:44;;;;;;;29.75;12.43;;;4.40;99.90;;;;;;5074777;28;20032;-48
2022/12/05 03:42:16;;;;;;;26.95;12.40;;;4.40;99.90;;;;;;5040170;28;20060;-48
2022/12/05 03:45:18;;;;;;;28.13;12.45;;;4.40;99.90;;;;;;5067338;28;20037;-45
2022/12/05 03:47:53;;;;;;;29.33;12.18;;;4.40;99.90;;;;;;5053612;28;20168;-44
2022/12/05 03:50:26;;;;;;;30.10;12.32;;;4.50;99.90;;;;;;5062453;28;20032;-43
2022/12/05 03:53:01;;;;;;;36.22;12.77;;;4.50;99.90;;;;;;5062376;28;20098;-42
2022/12/05 03:55:30;;;;;;;28.02;12.68;;;4.50;99.90;;;;;;5065258;28;20037;-43
2022/12/05 03:58:04;;;;;;;26.40;11.60;;;4.50;99.90;;;;;;5058668;28;20036;-44
2022/12/05 04:00:34;;;;;;;34.25;13.57;;;4.50;99.90;;;;;;5064824;28;20501;-42
2022/12/05 04:03:14;;;;;;;36.63;12.20;;;4.50;99.90;;;;;;5057211;28;20036;-42
2022/12/05 04:05:48;;;;;;;28.58;12.30;;;4.50;99.90;;;;;;5063163;28;20490;-46
2022/12/05 04:08:25;;;;;;;36.55;12.90;;;4.50;99.90;;;;;;5069247;28;20091;-44
2022/12/05 04:10:57;;;;;;;30.48;12.48;;;4.50;99.90;;;;;;5066687;28;20072;-43
2022/12/05 04:13:33;;;;;;;26.95;11.25;;;4.50;99.90;;;;;;5064934;28;20083;-56
2022/12/05 04:19:18;;;;;;;26.08;11.32;;;4.60;99.90;;;;;;5069805;28;20055;-41
2022/12/05 04:21:52;;;;;;;29.05;12.60;;;4.60;99.90;;;;;;5056230;28;20450;-44
2022/12/05 04:27:30;;;;;;;31.33;12.55;;;4.60;99.90;;;;;;5058781;28;20097;-40
2022/12/05 04:30:04;;;;;;;28.88;10.95;;;4.60;99.90;;;;;;5071051;28;20032;-43
2022/12/05 04:32:43;;;;;;;28.83;12.73;;;4.60;99.90;;;;;;5064803;28;20037;-43
2022/12/05 04:35:17;;;;;;;26.95;11.10;;;4.60;99.90;;;;;;5067635;28;20123;-44
2022/12/05 04:37:47;;;;;;;26.52;11.57;;;4.60;99.90;;;;;;5025803;28;20066;-43
2022/12/05 04:40:32;;;;;;;25.67;10.18;;;4.60;99.90;;;;;;5062667;28;20068;-46
2022/12/05 04:43:00;;;;;;;27.77;11.00;;;4.70;99.90;;;;;;5057499;28;20513;-43
2022/12/05 04:45:26;;;;;;;25.15;10.20;;;4.70;99.90;;;;;;5067601;28;20401;-44
2022/12/05 04:48:01;;;;;;;21.85;10.30;;;4.70;99.90;;;;;;5057561;28;20036;-43
2022/12/05 04:50:31;;;;;;;21.25;9.43;;;4.70;99.90;;;;;;5068141;28;20045;-44
2022/12/05 04:52:59;;;;;;;19.08;8.93;;;4.70;99.90;;;;;;5065693;28;20498;-44
2022/12/05 04:55:26;;;;;;;23.60;9.98;;;4.70;99.90;;;;;;5064907;28;20044;-45
2022/12/05 04:58:17;;;;;;;20.20;9.45;;;4.70;99.90;;;;;;5061604;28;20033;-43
2022/12/05 05:01:01;;;;;;;19.13;8.45;;;4.70;99.90;;;;;;5065880;28;20110;-47
2022/12/05 05:03:48;;;;;;;21.67;8.20;;;4.70;99.90;;;;;;5061603;28;20072;-44
2022/12/05 05:06:14;;;;;;;19.88;8.55;;;4.80;99.90;;;;;;5067255;28;20059;-46
2022/12/05 05:08:51;;;;;;;15.75;8.00;;;4.70;99.90;;;;;;5069315;28;20467;-45
2022/12/05 05:11:25;;;;;;;19.23;8.10;;;4.70;99.90;;;;;;5055389;28;20064;-43
2022/12/05 05:13:51;;;;;;;16.08;7.05;;;4.80;99.90;;;;;;5062944;28;20053;-42
2022/12/05 05:16:33;;;;;;;18.30;7.15;;;4.80;99.90;;;;;;5068207;28;20048;-46
2022/12/05 05:18:59;;;;;;;19.10;8.00;;;4.80;99.90;;;;;;5058788;28;20035;-43
2022/12/05 05:21:27;;;;;;;11.93;5.63;;;4.80;99.90;;;;;;5065454;28;20037;-45
2022/12/05 05:23:54;;;;;;;14.88;6.72;;;4.80;99.90;;;;;;5066533;28;20440;-46
2022/12/05 05:26:21;;;;;;;14.70;6.18;;;4.80;99.90;;;;;;5063273;28;20036;-42
2022/12/05 05:28:47;;;;;;;13.05;6.97;;;4.80;99.90;;;;;;5063458;28;20041;-44
2022/12/05 05:31:14;;;;;;;11.63;6.40;;;4.80;99.90;;;;;;5055683;28;20095;-42
2022/12/05 05:33:40;;;;;;;17.00;6.82;;;4.80;99.90;;;;;;5055536;28;20585;-43
2022/12/05 05:36:09;;;;;;;16.10;6.85;;;4.80;99.90;;;;;;5060956;28;20119;-41
2022/12/05 05:38:38;;;;;;;12.18;6.30;;;4.80;99.90;;;;;;5057738;28;20052;-42
2022/12/05 05:41:05;;;;;;;12.77;6.32;;;4.80;99.90;;;;;;5059046;28;20068;-43
2022/12/05 05:43:31;;;;;;;17.55;7.00;;;4.90;99.90;;;;;;5070723;28;20110;-44
2022/12/05 05:45:57;;;;;;;11.00;6.13;;;4.90;99.90;;;;;;5066383;28;20490;-40
2022/12/05 05:48:23;;;;;;;12.52;6.38;;;4.90;99.90;;;;;;5063379;28;20036;-43
2022/12/05 05:50:48;;;;;;;11.73;6.10;;;4.90;99.90;;;;;;5061510;28;20025;-43
2022/12/05 05:53:14;;;;;;;12.13;6.00;;;4.90;99.90;;;;;;5064984;28;20098;-40
2022/12/05 05:55:41;;;;;;;10.40;5.50;;;4.90;99.90;;;;;;5066199;28;20041;-40
2022/12/05 05:58:08;;;;;;;13.55;6.25;;;4.90;99.90;;;;;;5062605;28;20036;-41
2022/12/05 06:00:34;;;;;;;10.95;5.28;;;4.90;99.90;;;;;;5060759;28;20098;-42
2022/12/05 06:03:00;;;;;;;9.15;5.20;;;4.90;99.90;;;;;;5064148;28;20054;-44
2022/12/05 06:05:25;;;;;;;8.85;4.57;;;5.00;99.90;;;;;;5063815;28;20040;-43
2022/12/05 06:07:52;;;;;;;9.55;4.80;;;5.00;99.90;;;;;;5064951;28;20070;-43
2022/12/05 06:10:18;;;;;;;7.07;3.78;;;5.00;99.90;;;;;;5065305;28;20491;-45
2022/12/05 06:12:44;;;;;;;8.18;3.92;;;5.00;99.90;;;;;;5063684;28;20560;-40
2022/12/05 06:15:10;;;;;;;6.78;3.40;;;5.00;99.90;;;;;;5063416;28;20679;-46
2022/12/05 06:17:36;;;;;;;8.48;3.92;;;5.00;99.90;;;;;;5065488;28;20136;-41
2022/12/05 06:20:02;;;;;;;7.57;3.35;;;5.00;99.90;;;;;;5066987;28;20102;-42
2022/12/05 06:22:29;;;;;;;6.72;3.50;;;5.00;99.90;;;;;;5061414;28;21605;-44
2022/12/05 06:24:54;;;;;;;6.70;3.42;;;5.00;99.90;;;;;;5060958;28;20123;-51
2022/12/05 06:27:20;;;;;;;5.68;2.60;;;5.00;99.90;;;;;;5058952;28;20115;-41
2022/12/05 06:29:46;;;;;;;7.18;3.05;;;5.00;99.90;;;;;;5071651;28;20048;-42
2022/12/05 06:32:11;;;;;;;4.53;2.40;;;5.00;99.90;;;;;;5063601;28;20486;-42
2022/12/05 06:34:37;;;;;;;6.40;3.17;;;5.10;99.90;;;;;;5059390;28;20123;-43
2022/12/05 06:37:03;;;;;;;6.50;3.10;;;5.00;99.90;;;;;;5053948;28;20039;-41
2022/12/05 06:39:29;;;;;;;6.15;2.58;;;5.10;99.90;;;;;;5059641;28;20821;-43
2022/12/05 06:41:54;;;;;;;6.47;3.08;;;5.00;99.90;;;;;;5061000;28;20537;-44
2022/12/05 06:44:20;;;;;;;4.85;2.50;;;5.10;99.90;;;;;;5060365;28;20087;-43
2022/12/05 06:46:47;;;;;;;5.50;3.03;;;5.00;99.90;;;;;;5058860;28;20352;-43
2022/12/05 06:49:13;;;;;;;5.60;3.00;;;5.10;99.90;;;;;;5055648;28;20447;-54
2022/12/05 06:51:39;;;;;;;5.47;2.45;;;5.10;99.90;;;;;;5053972;28;20097;-41
2022/12/05 06:54:05;;;;;;;6.95;3.50;;;5.10;99.90;;;;;;5055152;28;20459;-43
2022/12/05 06:56:30;;;;;;;6.10;3.40;;;5.10;99.90;;;;;;5056070;28;20041;-42
2022/12/05 06:58:56;;;;;;;6.15;2.90;;;5.10;99.90;;;;;;5037706;28;20036;-40
2022/12/05 07:01:38;;;;;;;5.30;3.00;;;5.10;99.90;;;;;;5049065;28;20056;-43
2022/12/05 07:04:05;;;;;;;6.07;3.10;;;5.10;99.90;;;;;;5051477;28;20106;-42
2022/12/05 07:06:32;;;;;;;6.25;3.22;;;5.10;99.90;;;;;;5055422;28;20048;-44
2022/12/05 07:08:58;;;;;;;6.70;3.17;;;5.10;99.90;;;;;;5052512;28;20394;-42
2022/12/05 07:11:24;;;;;;;6.47;3.08;;;5.10;99.90;;;;;;5058584;28;20049;-43
2022/12/05 07:13:50;;;;;;;6.28;3.22;;;5.10;99.90;;;;;;5061691;28;20048;-44
2022/12/05 07:16:16;;;;;;;5.95;2.95;;;5.20;99.90;;;;;;5063171;28;20037;-44
2022/12/05 07:18:42;;;;;;;6.63;3.13;;;5.20;99.90;;;;;;5072800;28;20036;-41
2022/12/05 07:21:11;;;;;;;6.75;2.78;;;5.10;99.90;;;;;;5068909;28;20041;-42
2022/12/05 07:23:38;;;;;;;6.35;2.80;;;5.20;99.90;;;;;;5066598;28;20119;-41
2022/12/05 07:26:05;;;;;;;6.07;2.80;;;5.10;99.90;;;;;;5065801;28;20036;-42
2022/12/05 07:28:31;;;;;;;6.65;2.90;;;5.20;99.90;;;;;;5064371;28;20070;-43
2022/12/05 07:31:06;;;;;;;5.85;2.42;;;5.20;99.90;;;;;;5060948;28;20032;-39
2022/12/05 07:33:32;;;;;;;4.43;2.28;;;5.20;99.90;;;;;;5058014;28;20044;-39
2022/12/05 07:36:03;;;;;;;4.63;2.35;;;5.20;99.90;;;;;;5039635;28;20049;-40
2022/12/05 07:38:28;;;;;;;4.82;2.15;;;5.20;99.90;;;;;;5064235;28;20094;-38
2022/12/05 07:40:54;;;;;;;5.00;2.30;;;5.20;99.90;;;;;;5061553;28;20048;-38
2022/12/05 07:43:20;;;;;;;4.82;2.15;;;5.20;99.90;;;;;;5060242;28;20652;-38
2022/12/05 07:45:46;;;;;;;4.85;1.80;;;5.20;99.90;;;;;;5065935;28;20123;-39
2022/12/05 07:48:11;;;;;;;4.13;1.77;;;5.20;99.90;;;;;;5069853;28;20071;-38
2022/12/05 07:50:37;;;;;;;4.32;1.88;;;5.20;99.90;;;;;;5061870;28;20036;-38
2022/12/05 07:53:03;;;;;;;4.03;1.75;;;5.20;99.90;;;;;;5062890;28;20060;-38
2022/12/05 07:55:28;;;;;;;3.90;1.85;;;5.20;99.90;;;;;;5062510;28;20432;-38
2022/12/05 07:57:54;;;;;;;6.38;2.00;;;5.20;99.90;;;;;;5057433;28;20043;-39
2022/12/05 08:00:20;;;;;;;4.38;1.85;;;5.20;99.90;;;;;;5060727;28;20147;-44
2022/12/05 08:02:46;;;;;;;5.40;1.88;;;5.20;99.90;;;;;;5058760;28;20036;-44
2022/12/05 08:05:12;;;;;;;4.93;2.17;;;5.20;99.90;;;;;;5064125;28;20102;-43
2022/12/05 08:07:38;;;;;;;4.38;1.80;;;5.20;99.90;;;;;;5060186;28;20040;-43
2022/12/05 08:10:04;;;;;;;4.35;2.00;;;5.20;99.90;;;;;;5052404;28;20666;-41
2022/12/05 08:12:30;;;;;;;4.53;1.75;;;5.20;99.90;;;;;;5056690;28;20033;-51
2022/12/05 08:14:55;;;;;;;3.60;1.80;;;5.20;99.90;;;;;;5069232;28;20043;-43
2022/12/05 08:17:21;;;;;;;4.50;1.65;;;5.20;99.90;;;;;;5067862;28;20032;-43
2022/12/05 08:19:47;;;;;;;4.82;1.98;;;5.30;99.90;;;;;;5058217;28;20033;-41
2022/12/05 08:22:12;;;;;;;4.03;1.70;;;5.30;99.90;;;;;;5059508;28;20525;-40
2022/12/05 08:24:38;;;;;;;5.28;2.40;;;5.30;99.90;;;;;;5057850;28;20445;-37
2022/12/05 08:27:04;;;;;;;4.07;1.90;;;5.30;99.90;;;;;;5058795;28;20536;-38
2022/12/05 08:29:30;;;;;;;5.00;2.20;;;5.40;99.90;;;;;;5059925;28;20098;-39
2022/12/05 08:31:55;;;;;;;5.97;2.30;;;5.40;99.90;;;;;;5056496;28;20048;-37
2022/12/05 08:34:21;;;;;;;4.60;2.30;;;5.40;99.90;;;;;;5065148;28;20043;-37
2022/12/05 08:36:47;;;;;;;4.85;2.25;;;5.40;99.90;;;;;;5057118;28;20140;-37
2022/12/05 08:39:16;;;;;;;4.40;2.30;;;5.40;99.90;;;;;;5052629;28;20025;-38
2022/12/05 08:41:46;;;;;;;4.78;2.30;;;5.50;99.90;;;;;;5052301;28;20052;-38
2022/12/05 08:44:17;;;;;;;6.38;2.92;;;5.50;99.90;;;;;;5051881;28;20487;-38
2022/12/05 08:46:48;;;;;;;5.72;2.47;;;5.50;99.90;;;;;;5058560;28;20525;-42
2022/12/05 08:49:13;;;;;;;6.47;2.50;;;5.50;99.90;;;;;;5060889;28;20044;-39
2022/12/05 08:51:41;;;;;;;6.65;2.90;;;5.50;99.90;;;;;;5066458;28;20102;-39
2022/12/05 08:54:07;;;;;;;6.13;2.90;;;5.50;99.90;;;;;;5069068;28;20048;-38
2022/12/05 08:56:33;;;;;;;5.32;2.72;;;5.50;99.90;;;;;;5066985;28;20044;-41
2022/12/05 08:58:59;;;;;;;6.40;3.38;;;5.50;99.90;;;;;;5060417;28;20387;-38
2022/12/05 09:01:29;;;;;;;6.97;2.95;;;5.50;99.90;;;;;;5060290;28;20486;-39
2022/12/05 09:03:55;;;;;;;6.85;3.05;;;5.50;99.90;;;;;;5056106;28;20047;-38
2022/12/05 09:06:23;;;;;;;7.38;3.30;;;5.50;99.90;;;;;;5064274;28;20496;-38
2022/12/05 09:08:53;;;;;;;7.15;2.85;;;5.50;99.90;;;;;;5056639;28;20037;-38
2022/12/05 09:11:23;;;;;;;6.78;3.30;;;5.50;99.90;;;;;;5060672;28;20083;-38
2022/12/05 09:13:51;;;;;;;7.30;3.17;;;5.50;99.90;;;;;;5052505;28;20041;-39
2022/12/05 09:16:19;;;;;;;8.32;3.30;;;5.50;99.90;;;;;;5063936;28;20037;-39
2022/12/05 09:18:46;;;;;;;6.43;3.10;;;5.50;99.90;;;;;;5061166;28;20040;-38
2022/12/05 09:21:15;;;;;;;6.95;2.85;;;5.50;99.90;;;;;;5074262;28;20486;-38
2022/12/05 09:23:41;;;;;;;10.85;3.30;;;5.50;99.90;;;;;;5063385;28;20075;-38
2022/12/05 09:26:10;;;;;;;10.38;3.55;;;5.50;99.90;;;;;;5064278;28;20533;-38
2022/12/05 09:28:37;;;;;;;7.65;3.10;;;5.50;99.90;;;;;;5065983;28;20496;-38
2022/12/05 09:31:05;;;;;;;7.00;3.00;;;5.50;99.90;;;;;;5058250;28;20102;-38
2022/12/05 09:33:33;;;;;;;6.60;2.55;;;5.60;99.90;;;;;;5059937;28;20378;-38
2022/12/05 09:36:08;;;;;;;9.55;3.10;;;5.60;99.90;;;;;;5063866;28;20127;-37
2022/12/05 09:38:34;;;;;;;8.30;3.05;;;5.60;99.90;;;;;;5057394;28;20562;-39
2022/12/05 09:41:15;;;;;;;5.82;2.60;;;5.60;99.90;;;;;;5054879;28;20051;-39
2022/12/05 09:43:57;;;;;;;6.38;2.90;;;5.60;99.90;;;;;;5058550;28;20463;-38
2022/12/05 09:46:36;;;;;;;6.43;2.85;;;5.60;99.90;;;;;;5053912;28;20492;-38
2022/12/05 09:49:04;;;;;;;7.55;3.15;;;5.60;99.90;;;;;;5061144;28;20036;-39
2022/12/05 09:51:31;;;;;;;8.80;3.17;;;5.60;99.90;;;;;;5064576;28;20051;-39
2022/12/05 09:53:56;;;;;;;6.82;3.38;;;5.60;99.90;;;;;;5061522;28;20032;-38
2022/12/05 09:56:31;;;;;;;5.55;2.40;;;5.60;99.90;;;;;;5061198;28;20033;-48
2022/12/05 09:59:01;;;;;;;5.95;2.30;;;5.60;99.90;;;;;;5061433;28;20032;-41
2022/12/05 10:01:40;;;;;;;11.02;3.30;;;5.60;99.90;;;;;;5048630;28;20041;-41
2022/12/05 10:04:27;;;;;;;6.82;3.03;;;5.60;99.90;;;;;;5057592;28;20111;-43
2022/12/05 10:07:16;;;;;;;7.20;2.60;;;5.60;99.90;;;;;;5059721;28;20074;-39
2022/12/05 10:09:55;;;;;;;6.50;2.78;;;5.50;99.90;;;;;;5058399;28;20033;-38
2022/12/05 10:12:43;;;;;;;7.53;3.47;;;5.50;99.90;;;;;;5066521;28;20040;-38
2022/12/05 10:15:14;;;;;;;7.32;3.25;;;5.50;99.90;;;;;;5058657;28;20045;-38
2022/12/05 10:17:45;;;;;;;6.10;2.95;;;5.50;99.90;;;;;;5065791;28;20463;-39
2022/12/05 10:20:13;;;;;;;8.32;3.00;;;5.50;99.90;;;;;;5060883;28;20059;-39
2022/12/05 10:22:51;;;;;;;8.35;2.75;;;5.50;99.90;;;;;;5057183;28;20040;-38
2022/12/05 10:25:22;;;;;;;9.35;3.70;;;5.50;99.90;;;;;;5062195;28;20044;-39
2022/12/05 10:27:55;;;;;;;7.00;2.78;;;5.40;99.90;;;;;;5056279;28;20071;-38
2022/12/05 10:30:29;;;;;;;7.45;2.92;;;5.40;99.90;;;;;;5063868;28;20044;-38
2022/12/05 10:32:57;;;;;;;6.70;2.75;;;5.50;99.90;;;;;;5060970;28;20036;-38
2022/12/05 10:35:26;;;;;;;7.90;3.20;;;5.40;99.90;;;;;;5057751;28;20073;-43
2022/12/05 10:37:55;;;;;;;6.72;3.33;;;5.40;99.90;;;;;;5058765;28;20528;-39
2022/12/05 10:40:21;;;;;;;7.35;3.42;;;5.40;99.90;;;;;;5055531;28;20076;-37
2022/12/05 10:42:48;;;;;;;6.65;3.45;;;5.40;99.90;;;;;;5064329;28;20178;-38
2022/12/05 10:45:21;;;;;;;7.90;3.58;;;5.40;99.90;;;;;;5059469;28;20037;-38
2022/12/05 10:47:48;;;;;;;7.95;3.90;;;5.40;99.90;;;;;;5045009;28;20143;-38
2022/12/05 10:50:31;;;;;;;7.38;3.33;;;5.40;99.90;;;;;;5052176;28;20037;-37
2022/12/05 10:53:00;;;;;;;8.55;4.03;;;5.40;99.90;;;;;;5055279;28;20498;-38
2022/12/05 10:55:40;;;;;;;6.13;2.70;;;5.40;99.90;;;;;;5061337;28;20087;-39
2022/12/05 10:58:10;;;;;;;8.35;3.55;;;5.40;99.90;;;;;;5058697;28;20119;-38
2022/12/05 11:00:42;;;;;;;8.88;3.50;;;5.40;99.90;;;;;;5054477;28;20036;-38
2022/12/05 11:03:26;;;;;;;8.10;3.78;;;5.40;99.90;;;;;;5053190;28;20053;-38
2022/12/05 11:05:54;;;;;;;9.45;3.55;;;5.50;99.90;;;;;;5058827;28;20124;-38
2022/12/05 11:08:28;;;;;;;6.20;3.10;;;5.40;99.90;;;;;;5049934;28;20110;-45
2022/12/05 11:11:04;;;;;;;8.32;3.22;;;5.50;99.90;;;;;;5053740;28;20040;-39
2022/12/05 11:13:31;;;;;;;7.18;2.80;;;5.50;99.90;;;;;;5050902;28;20045;-38
2022/12/05 11:15:57;;;;;;;8.13;3.72;;;5.50;99.90;;;;;;5056788;28;20615;-44
2022/12/05 11:18:31;;;;;;;7.13;3.58;;;5.50;99.90;;;;;;5055451;28;20405;-44
2022/12/05 11:21:12;;;;;;;9.20;3.72;;;5.50;99.90;;;;;;5056527;28;20036;-43
2022/12/05 11:23:38;;;;;;;8.13;3.50;;;5.50;99.90;;;;;;5052181;28;20045;-46
2022/12/05 11:26:19;;;;;;;6.53;2.90;;;5.50;99.90;;;;;;5051307;28;20082;-46
2022/12/05 11:28:45;;;;;;;8.30;3.45;;;5.50;99.90;;;;;;5040839;28;20143;-49
2022/12/05 11:31:11;;;;;;;8.27;2.83;;;5.50;99.90;;;;;;5057555;28;20135;-43
2022/12/05 11:33:37;;;;;;;6.07;2.90;;;5.50;99.90;;;;;;5056533;28;20045;-43
2022/12/05 11:36:05;;;;;;;8.23;3.15;;;5.50;99.90;;;;;;5057150;28;20120;-44
2022/12/05 11:38:33;;;;;;;7.40;3.70;;;5.50;99.90;;;;;;5056443;28;20048;-45
2022/12/05 11:40:59;;;;;;;7.88;2.92;;;5.50;99.90;;;;;;5060972;28;20619;-43
2022/12/05 11:44:02;;;;;;;7.85;3.55;;;5.50;99.90;;;;;;5056494;28;20041;-45
2022/12/05 11:46:45;;;;;;;7.13;2.97;;;5.50;99.90;;;;;;5060640;28;20045;-45
2022/12/05 11:49:27;;;;;;;6.75;2.90;;;5.50;99.90;;;;;;5048665;28;21382;-43
2022/12/05 11:52:24;;;;;;;7.00;3.35;;;5.50;99.90;;;;;;5052510;28;20112;-45
2022/12/05 11:54:55;;;;;;;8.85;3.67;;;5.50;99.90;;;;;;5041175;28;20048;-46
2022/12/05 11:57:39;;;;;;;6.15;2.85;;;5.50;99.90;;;;;;5053010;28;20041;-43
2022/12/05 12:00:28;;;;;;;4.22;1.92;;;5.50;99.90;;;;;;5059789;28;20541;-45
2022/12/05 12:03:12;;;;;;;6.70;2.85;;;5.50;99.90;;;;;;5052462;28;20096;-45
2022/12/05 12:06:00;;;;;;;6.07;2.75;;;5.50;99.90;;;;;;5056126;28;20044;-43
2022/12/05 12:08:29;;;;;;;4.88;2.20;;;5.50;99.90;;;;;;5055315;28;20037;-44
2022/12/05 12:11:25;;;;;;;6.07;2.63;;;5.50;99.90;;;;;;5048445;28;20036;-44
2022/12/05 12:14:20;;;;;;;5.30;2.63;;;5.50;99.90;;;;;;5059648;28;20456;-41
2022/12/05 12:16:52;;;;;;;9.63;2.90;;;5.50;99.90;;;;;;5062752;28;20124;-42
2022/12/05 12:19:50;;;;;;;8.40;2.97;;;5.40;99.90;;;;;;5055224;28;20045;-41
2022/12/05 12:22:47;;;;;;;7.75;3.55;;;5.50;99.90;;;;;;5060860;28;20501;-46
2022/12/05 12:25:21;;;;;;;6.88;3.10;;;5.50;99.90;;;;;;5064065;28;20043;-45
2022/12/05 12:28:08;;;;;;;7.43;2.83;;;5.40;99.90;;;;;;5062248;28;20062;-47
2022/12/05 12:30:52;;;;;;;6.28;3.15;;;5.40;99.90;;;;;;5057699;28;20044;-45
2022/12/05 12:33:56;;;;;;;7.47;3.35;;;5.40;99.90;;;;;;5057908;28;20068;-44
2022/12/05 12:36:27;;;;;;;5.28;2.70;;;5.40;99.90;;;;;;5056822;28;20498;-47
2022/12/05 12:39:09;;;;;;;7.50;2.58;;;5.50;99.90;;;;;;5054691;28;20036;-41
2022/12/05 12:41:50;;;;;;;6.47;3.00;;;5.40;99.90;;;;;;5060993;28;20510;-42
2022/12/05 12:44:40;;;;;;;7.32;3.28;;;5.40;99.90;;;;;;5068106;28;20398;-39
2022/12/05 12:47:38;;;;;;;7.88;2.97;;;5.50;99.90;;;;;;5066506;28;20055;-42
2022/12/05 12:50:10;;;;;;;5.63;2.47;;;5.50;99.90;;;;;;5033721;28;20414;-48
2022/12/05 12:53:13;;;;;;;6.10;2.90;;;5.50;99.90;;;;;;5060432;28;20047;-43
2022/12/05 12:56:17;;;;;;;6.75;3.38;;;5.50;99.90;;;;;;5058811;28;20307;-46
2022/12/05 12:59:03;;;;;;;9.55;2.90;;;5.50;99.90;;;;;;5062169;28;20490;-43
2022/12/05 13:01:57;;;;;;;6.78;2.88;;;5.50;99.90;;;;;;5061972;28;20642;-47
2022/12/05 13:04:33;;;;;;;7.82;3.10;;;5.50;99.90;;;;;;5057095;28;20051;-46
2022/12/05 13:07:26;;;;;;;8.27;2.78;;;5.50;99.90;;;;;;5052763;28;20186;-42
2022/12/05 13:09:56;;;;;;;5.72;2.72;;;5.50;99.90;;;;;;5054660;28;20045;-43
2022/12/05 13:12:36;;;;;;;5.22;2.40;;;5.50;99.90;;;;;;5059046;28;20051;-40
2022/12/05 13:15:12;;;;;;;4.88;2.53;;;5.50;99.90;;;;;;5058156;28;20037;-45
2022/12/05 13:17:41;;;;;;;7.63;2.63;;;5.50;99.90;;;;;;5059527;28;20025;-46
2022/12/05 13:20:15;;;;;;;6.55;2.72;;;5.50;99.90;;;;;;5057718;28;20433;-45
2022/12/05 13:22:42;;;;;;;6.88;2.83;;;5.60;99.90;;;;;;5062197;28;20067;-42